createdAt,value
2023-05-04T00:00:22.358Z,98913.28
2023-05-04T00:04:36.577Z,98912.94
2023-05-04T00:08:46.877Z,98910.56
2023-05-04T00:12:57.456Z,98894.91
2023-05-04T00:17:11.890Z,98894.34
2023-05-04T00:21:23.995Z,98895.06
2023-05-04T00:25:34.493Z,98892.09
2023-05-04T00:29:44.300Z,98898.44
2023-05-04T00:33:58.139Z,98888.25
2023-05-04T00:38:08.402Z,98877.88
2023-05-04T00:42:18.891Z,98885.00
2023-05-04T00:46:27.005Z,98888.16
2023-05-04T00:50:39.273Z,98900.41
2023-05-04T00:54:50.427Z,98898.00
2023-05-04T00:59:18.262Z,98887.28
2023-05-04T01:03:34.681Z,98892.59
2023-05-04T01:08:14.322Z,98899.84
2023-05-04T01:12:41.608Z,98902.13
2023-05-04T01:17:04.740Z,98915.16
2023-05-04T01:21:15.364Z,98909.66
2023-05-04T01:25:23.903Z,98911.44
2023-05-04T01:29:35.405Z,98913.53
2023-05-04T01:33:51.349Z,98925.16
2023-05-04T01:37:58.511Z,98927.13
2023-05-04T01:42:05.768Z,98927.78
2023-05-04T01:46:19.411Z,98932.53
2023-05-04T01:50:26.571Z,98925.38
2023-05-04T01:54:41.201Z,98920.13
2023-05-04T01:58:53.902Z,98919.25
2023-05-04T02:03:02.908Z,98910.41
2023-05-04T02:07:25.000Z,98910.16
2023-05-04T02:11:34.891Z,98910.38
2023-05-04T02:15:49.697Z,98907.56
2023-05-04T02:19:59.514Z,98904.72
2023-05-04T02:24:13.557Z,98902.97
2023-05-04T02:28:21.874Z,98899.56
2023-05-04T02:32:31.205Z,98905.97
2023-05-04T02:36:37.811Z,98905.38
2023-05-04T02:40:55.030Z,98910.44
2023-05-04T02:45:08.302Z,98907.31
2023-05-04T02:49:17.453Z,98906.59
2023-05-04T02:53:35.774Z,98905.47
2023-05-04T02:57:47.366Z,98919.03
2023-05-04T03:01:58.184Z,98911.97
2023-05-04T03:06:11.573Z,98917.50
2023-05-04T03:10:19.673Z,98915.09
2023-05-04T03:14:31.531Z,98919.22
2023-05-04T03:23:20.368Z,98927.91
2023-05-04T03:27:28.067Z,98922.59
2023-05-04T03:31:43.521Z,98927.09
2023-05-04T03:36:03.539Z,98917.34
2023-05-04T03:40:15.458Z,98909.22
2023-05-04T03:44:29.618Z,98912.53
2023-05-04T03:48:39.220Z,98927.31
2023-05-04T04:03:33.537Z,98924.72
2023-05-04T04:07:54.859Z,98927.38
2023-05-04T04:17:30.508Z,98930.44
2023-05-04T04:21:36.530Z,98940.66
2023-05-04T04:25:49.499Z,98941.25
2023-05-04T04:30:11.557Z,98932.00
2023-05-04T04:34:26.167Z,98935.06
2023-05-04T04:38:35.030Z,98927.91
2023-05-04T04:42:47.300Z,98928.19
2023-05-04T04:47:00.517Z,98935.72
2023-05-04T04:51:16.654Z,98941.59
2023-05-04T04:55:29.328Z,98951.06
2023-05-04T04:59:46.998Z,98957.03
2023-05-04T05:04:11.656Z,98950.00
2023-05-04T05:08:50.536Z,98949.97
2023-05-04T05:13:02.081Z,98950.56
2023-05-04T05:17:06.895Z,98963.50
2023-05-04T05:21:09.373Z,98964.25
2023-05-04T05:25:12.329Z,98967.25
2023-05-04T05:29:14.414Z,98973.75
2023-05-04T05:33:17.058Z,98976.03
2023-05-04T05:37:19.393Z,98971.69
2023-05-04T05:41:22.660Z,98973.44
2023-05-04T05:45:24.827Z,98972.81
2023-05-04T05:49:26.815Z,98968.41
2023-05-04T05:53:28.892Z,98969.50
2023-05-04T05:57:31.377Z,98975.38
2023-05-04T06:01:33.405Z,98970.59
2023-05-04T06:05:35.546Z,98979.19
2023-05-04T06:09:37.524Z,98984.28
2023-05-04T06:13:39.824Z,98976.00
2023-05-04T06:17:41.953Z,98976.50
2023-05-04T06:21:43.948Z,98972.72
2023-05-04T06:25:45.947Z,98969.19
2023-05-04T06:29:47.969Z,98968.81
2023-05-04T06:33:50.910Z,98966.81
2023-05-04T06:37:53.007Z,98962.94
2023-05-04T06:41:55.601Z,98960.28
2023-05-04T06:46:01.836Z,98971.91
2023-05-04T06:50:12.307Z,98972.81
2023-05-04T06:54:14.386Z,98961.22
2023-05-04T06:58:17.841Z,98976.19
2023-05-04T07:02:20.438Z,98973.38
2023-05-04T07:06:26.538Z,98963.84
2023-05-04T07:10:29.001Z,98975.22
2023-05-04T07:14:31.041Z,98959.03
2023-05-04T07:18:33.113Z,98976.31
2023-05-04T07:22:35.363Z,98969.19
2023-05-04T07:26:37.346Z,98978.25
2023-05-04T07:30:39.543Z,98976.00
2023-05-04T07:34:45.643Z,98970.16
2023-05-04T07:38:48.583Z,98970.50
2023-05-04T07:42:50.771Z,98973.22
2023-05-04T07:46:52.976Z,98981.94
2023-05-04T07:50:55.182Z,98977.34
2023-05-04T07:54:57.263Z,98976.56
2023-05-04T07:58:59.491Z,98974.81
2023-05-04T08:03:01.650Z,98968.09
2023-05-04T08:07:03.877Z,98964.19
2023-05-04T08:11:19.184Z,98968.47
2023-05-04T08:15:22.886Z,98971.09
2023-05-04T08:19:24.998Z,98976.59
2023-05-04T08:23:27.578Z,98963.69
2023-05-04T08:27:29.620Z,98961.47
2023-05-04T08:31:31.701Z,98967.16
2023-05-04T08:35:33.863Z,98972.81
2023-05-04T08:39:35.882Z,98981.63
2023-05-04T08:43:38.441Z,98988.09
2023-05-04T08:47:43.504Z,98979.97
2023-05-04T08:51:46.486Z,98990.88
2023-05-04T08:55:51.462Z,98990.38
2023-05-04T08:59:55.587Z,98982.97
2023-05-04T09:04:01.633Z,98987.97
2023-05-04T09:08:04.184Z,98993.13
2023-05-04T09:12:06.426Z,98993.72
2023-05-04T09:16:08.658Z,98986.94
2023-05-04T09:20:11.190Z,98983.69
2023-05-04T09:24:13.259Z,98985.28
2023-05-04T09:28:17.187Z,98989.25
2023-05-04T09:32:19.290Z,98978.38
2023-05-04T09:36:22.141Z,98980.19
2023-05-04T09:40:35.701Z,98973.44
2023-05-04T09:44:37.837Z,98975.78
2023-05-04T09:48:58.912Z,98974.06
2023-05-04T09:53:01.210Z,98974.03
2023-05-04T09:57:15.167Z,98968.47
2023-05-04T10:01:18.347Z,98962.34
2023-05-04T10:05:22.096Z,98967.78
2023-05-04T10:09:25.360Z,98960.38
2023-05-04T10:13:28.244Z,98951.75
2023-05-04T10:17:50.757Z,98947.03
2023-05-04T10:22:36.017Z,98945.47
2023-05-04T10:26:48.015Z,98947.72
2023-05-04T10:30:58.510Z,98945.72
2023-05-04T10:35:08.740Z,98949.06
2023-05-04T10:39:21.095Z,98949.56
2023-05-04T10:43:26.468Z,98945.56
2023-05-04T10:47:37.034Z,98938.22
2023-05-04T10:51:49.104Z,98936.75
2023-05-04T10:55:51.776Z,98933.84
2023-05-04T10:59:58.872Z,98927.25
2023-05-04T11:04:01.033Z,98927.81
2023-05-04T11:08:14.927Z,98913.78
2023-05-04T11:12:17.571Z,98918.16
2023-05-04T11:16:24.783Z,98916.88
2023-05-04T11:20:27.433Z,98912.16
2023-05-04T11:24:46.698Z,98926.06
2023-05-04T11:28:48.691Z,98915.38
2023-05-04T11:32:50.782Z,98913.50
2023-05-04T11:36:54.665Z,98916.19
2023-05-04T11:40:56.923Z,98905.56
2023-05-04T11:44:59.118Z,98903.97
2023-05-04T11:49:01.454Z,98905.22
2023-05-04T11:53:06.443Z,98905.03
2023-05-04T11:57:08.605Z,98904.44
2023-05-04T12:01:10.796Z,98898.72
2023-05-04T12:05:14.215Z,98895.41
2023-05-04T12:09:16.646Z,98886.72
2023-05-04T12:13:19.025Z,98879.88
2023-05-04T12:17:21.532Z,98889.03
2023-05-04T12:21:23.526Z,98886.47
2023-05-04T12:25:25.770Z,98877.25
2023-05-04T12:29:27.786Z,98875.34
2023-05-04T12:33:30.258Z,98870.56
2023-05-04T12:37:32.369Z,98868.56
2023-05-04T12:41:34.736Z,98862.78
2023-05-04T12:45:38.188Z,98864.09
2023-05-04T12:49:40.267Z,98856.06
2023-05-04T12:53:43.612Z,98848.72
2023-05-04T12:57:45.838Z,98853.28
2023-05-04T13:01:47.963Z,98839.31
2023-05-04T13:05:50.157Z,98842.84
2023-05-04T13:09:52.222Z,98840.56
2023-05-04T13:13:54.386Z,98835.13
2023-05-04T13:17:56.434Z,98832.63
2023-05-04T13:21:58.411Z,98827.22
2023-05-04T13:26:00.588Z,98824.72
2023-05-04T13:30:04.021Z,98818.69
2023-05-04T13:34:08.875Z,98819.47
2023-05-04T13:38:10.892Z,98812.59
2023-05-04T13:42:13.366Z,98814.00
2023-05-04T13:46:15.479Z,98811.19
2023-05-04T13:50:18.947Z,98792.69
2023-05-04T13:54:22.806Z,98801.25
2023-05-04T13:58:24.911Z,98798.06
2023-05-04T14:02:27.191Z,98795.19
2023-05-04T14:06:29.807Z,98786.81
2023-05-04T14:10:32.091Z,98782.59
2023-05-04T14:14:34.286Z,98784.56
2023-05-04T14:18:36.391Z,98776.13
2023-05-04T14:22:41.280Z,98766.81
2023-05-04T14:26:43.456Z,98762.16
2023-05-04T14:30:45.526Z,98774.09
2023-05-04T14:34:47.808Z,98769.97
2023-05-04T14:38:49.879Z,98762.72
2023-05-04T14:42:52.361Z,98771.72
2023-05-04T14:46:54.446Z,98764.81
2023-05-04T14:50:57.025Z,98767.84
2023-05-04T14:54:59.093Z,98764.03
2023-05-04T14:59:01.751Z,98758.53
2023-05-04T15:03:04.759Z,98762.16
2023-05-04T15:07:07.840Z,98759.66
2023-05-04T15:11:09.942Z,98748.59
2023-05-04T15:15:12.809Z,98750.53
2023-05-04T15:19:14.887Z,98745.06
2023-05-04T15:23:17.084Z,98748.72
2023-05-04T15:27:19.241Z,98742.97
2023-05-04T15:31:21.477Z,98742.94
2023-05-04T15:35:23.467Z,98745.97
2023-05-04T15:39:26.628Z,98744.84
2023-05-04T15:43:28.522Z,98737.44
2023-05-04T15:47:32.152Z,98741.28
2023-05-04T15:51:34.384Z,98741.81
2023-05-04T15:55:36.601Z,98734.06
2023-05-04T15:59:39.535Z,98741.34
2023-05-04T16:03:43.122Z,98748.84
2023-05-04T16:07:45.352Z,98743.53
2023-05-04T16:11:47.420Z,98741.75
2023-05-04T16:15:53.434Z,98741.34
2023-05-04T16:19:55.460Z,98743.13
2023-05-04T16:23:57.753Z,98732.59
2023-05-04T16:28:00.104Z,98733.03
2023-05-04T16:32:03.144Z,98727.59
2023-05-04T16:36:06.760Z,98730.34
2023-05-04T16:40:10.855Z,98733.91
2023-05-04T16:44:13.045Z,98731.72
2023-05-04T16:48:15.234Z,98744.69
2023-05-04T16:52:17.301Z,98739.00
2023-05-04T16:56:19.887Z,98742.13
2023-05-04T17:00:21.991Z,98741.41
2023-05-04T17:04:25.424Z,98739.91
2023-05-04T17:08:27.509Z,98737.84
2023-05-04T17:12:30.951Z,98740.00
2023-05-04T17:16:33.282Z,98744.72
2023-05-04T17:20:35.733Z,98744.06
2023-05-04T17:24:37.812Z,98747.16
2023-05-04T17:28:39.822Z,98747.72
2023-05-04T17:32:41.966Z,98750.31
2023-05-04T17:36:44.154Z,98756.41
2023-05-04T17:40:46.263Z,98753.63
2023-05-04T17:44:48.306Z,98757.13
2023-05-04T17:48:52.207Z,98757.34
2023-05-04T17:52:55.839Z,98760.41
2023-05-04T17:56:58.152Z,98762.88
2023-05-04T18:01:00.190Z,98757.94
2023-05-04T18:05:03.048Z,98761.53
2023-05-04T18:09:05.133Z,98773.72
2023-05-04T18:13:07.203Z,98787.56
2023-05-04T18:17:09.278Z,98791.81
2023-05-04T18:21:11.516Z,98802.66
2023-05-04T18:25:15.821Z,98802.16
2023-05-04T18:29:19.293Z,98800.97
2023-05-04T18:33:21.759Z,98808.25
2023-05-04T18:37:24.913Z,98805.56
2023-05-04T18:41:27.824Z,98812.88
2023-05-04T18:45:30.314Z,98820.53
2023-05-04T18:49:32.339Z,98815.03
2023-05-04T18:53:34.535Z,98815.16
2023-05-04T18:57:36.694Z,98827.34
2023-05-04T19:01:39.143Z,98829.88
2023-05-04T19:05:41.446Z,98845.50
2023-05-04T19:09:45.811Z,98846.78
2023-05-04T19:13:48.104Z,98857.44
2023-05-04T19:17:50.981Z,98863.09
2023-05-04T19:21:53.431Z,98861.41
2023-05-04T19:25:55.486Z,98867.97
2023-05-04T19:29:57.900Z,98876.38
2023-05-04T19:34:00.143Z,98880.06
2023-05-04T19:38:02.545Z,98887.69
2023-05-04T19:42:04.932Z,98882.88
2023-05-04T19:46:06.983Z,98888.94
2023-05-04T19:50:11.346Z,98898.16
2023-05-04T19:54:14.075Z,98903.03
2023-05-04T19:58:16.192Z,98902.44
2023-05-04T20:02:19.190Z,98900.25
2023-05-04T20:06:21.548Z,98908.47
2023-05-04T20:10:23.679Z,98908.75
2023-05-04T20:14:25.717Z,98908.34
2023-05-04T20:18:28.754Z,98908.03
2023-05-04T20:22:32.492Z,98919.88
2023-05-04T20:26:34.869Z,98916.13
2023-05-04T20:30:37.477Z,98924.78
2023-05-04T20:34:40.418Z,98928.91
2023-05-04T20:38:43.043Z,98930.09
2023-05-04T20:42:45.307Z,98933.47
2023-05-04T20:46:47.411Z,98931.66
2023-05-04T20:50:51.546Z,98931.50
2023-05-04T20:54:55.380Z,98933.75
2023-05-04T20:58:57.742Z,98931.34
2023-05-04T21:02:59.899Z,98930.69
2023-05-04T21:07:02.298Z,98938.31
2023-05-04T21:11:04.675Z,98938.84
2023-05-04T21:15:07.033Z,98940.69
2023-05-04T21:19:09.144Z,98940.41
2023-05-04T21:23:11.349Z,98943.63
2023-05-04T21:27:14.179Z,98945.53
2023-05-04T21:31:16.352Z,98955.41
2023-05-04T21:35:21.295Z,98943.25
2023-05-04T21:39:23.539Z,98955.88
2023-05-04T21:43:25.548Z,98953.69
2023-05-04T21:47:27.638Z,98956.13
2023-05-04T21:51:30.035Z,98959.88
2023-05-04T21:55:32.186Z,98959.09
2023-05-04T21:59:34.687Z,98968.75
2023-05-04T22:03:37.097Z,98967.16
2023-05-04T22:07:39.383Z,98971.44
2023-05-04T22:11:41.500Z,98974.13
2023-05-04T22:15:49.722Z,98979.78
2023-05-04T22:19:53.229Z,98988.06
2023-05-04T22:23:55.278Z,98988.28
2023-05-04T22:27:57.783Z,98996.28
2023-05-04T22:31:59.828Z,99000.81
2023-05-04T22:36:02.199Z,99001.38
2023-05-04T22:40:05.285Z,99007.50
2023-05-04T22:44:07.620Z,99004.03
2023-05-04T22:48:10.041Z,99008.03
2023-05-04T22:52:12.852Z,99002.09
2023-05-04T22:56:14.843Z,99005.03
2023-05-04T23:00:17.355Z,99008.50
2023-05-04T23:04:23.219Z,99002.09
2023-05-04T23:08:28.009Z,99001.28
2023-05-04T23:12:30.661Z,98996.19
2023-05-04T23:16:33.280Z,98992.19
2023-05-04T23:20:35.647Z,98998.56
2023-05-04T23:24:37.771Z,98997.47
2023-05-04T23:28:40.997Z,98990.22
2023-05-04T23:32:43.108Z,98989.66
2023-05-04T23:36:45.847Z,98989.34
2023-05-04T23:40:47.949Z,98982.59
2023-05-04T23:44:50.010Z,98982.53
2023-05-04T23:48:52.057Z,98981.34
2023-05-04T23:52:54.148Z,98970.63
2023-05-04T23:56:56.588Z,98970.22
